sensor_id;sensor_type;location;lat;lon;timestamp;P1;durP1;ratioP1;P2;durP2;ratioP2
79578;SDS011;69051;52.406;5.280;2023-06-19T00:02:12;15.77;;;7.93;;
79578;SDS011;69051;52.406;5.280;2023-06-19T00:04:39;13.23;;;8.43;;
79578;SDS011;69051;52.406;5.280;2023-06-19T00:07:05;14.38;;;8.23;;
79578;SDS011;69051;52.406;5.280;2023-06-19T00:09:32;13.00;;;8.02;;
79578;SDS011;69051;52.406;5.280;2023-06-19T00:11:59;15.60;;;8.27;;
79578;SDS011;69051;52.406;5.280;2023-06-19T00:14:25;12.18;;;8.55;;
79578;SDS011;69051;52.406;5.280;2023-06-19T00:16:52;11.18;;;7.95;;
79578;SDS011;69051;52.406;5.280;2023-06-19T00:19:18;14.80;;;8.43;;
79578;SDS011;69051;52.406;5.280;2023-06-19T00:21:45;19.00;;;8.43;;
79578;SDS011;69051;52.406;5.280;2023-06-19T00:24:12;12.52;;;8.13;;
79578;SDS011;69051;52.406;5.280;2023-06-19T00:26:38;16.20;;;8.85;;
79578;SDS011;69051;52.406;5.280;2023-06-19T00:29:06;13.95;;;8.63;;
79578;SDS011;69051;52.406;5.280;2023-06-19T00:31:33;13.68;;;7.78;;
79578;SDS011;69051;52.406;5.280;2023-06-19T00:34:03;14.85;;;9.13;;
79578;SDS011;69051;52.406;5.280;2023-06-19T00:36:30;14.65;;;8.40;;
79578;SDS011;69051;52.406;5.280;2023-06-19T00:38:56;19.90;;;8.13;;
79578;SDS011;69051;52.406;5.280;2023-06-19T00:41:22;13.15;;;7.95;;
79578;SDS011;69051;52.406;5.280;2023-06-19T00:43:50;12.73;;;7.25;;
79578;SDS011;69051;52.406;5.280;2023-06-19T00:46:18;14.38;;;7.75;;
79578;SDS011;69051;52.406;5.280;2023-06-19T00:48:45;13.93;;;8.57;;
79578;SDS011;69051;52.406;5.280;2023-06-19T00:51:11;14.52;;;8.88;;
79578;SDS011;69051;52.406;5.280;2023-06-19T00:53:38;15.40;;;8.50;;
79578;SDS011;69051;52.406;5.280;2023-06-19T00:56:04;12.65;;;7.75;;
79578;SDS011;69051;52.406;5.280;2023-06-19T00:58:31;13.57;;;8.02;;
79578;SDS011;69051;52.406;5.280;2023-06-19T01:00:58;13.48;;;7.95;;
79578;SDS011;69051;52.406;5.280;2023-06-19T01:03:34;16.17;;;7.78;;
79578;SDS011;69051;52.406;5.280;2023-06-19T01:06:02;14.20;;;7.80;;
79578;SDS011;69051;52.406;5.280;2023-06-19T01:11:10;11.73;;;7.35;;
79578;SDS011;69051;52.406;5.280;2023-06-19T01:13:51;13.80;;;7.20;;
79578;SDS011;69051;52.406;5.280;2023-06-19T01:16:24;12.60;;;6.30;;
79578;SDS011;69051;52.406;5.280;2023-06-19T01:18:50;11.63;;;6.30;;
79578;SDS011;69051;52.406;5.280;2023-06-19T01:21:17;12.50;;;6.32;;
79578;SDS011;69051;52.406;5.280;2023-06-19T01:23:45;10.45;;;6.55;;
79578;SDS011;69051;52.406;5.280;2023-06-19T01:26:11;10.43;;;6.00;;
79578;SDS011;69051;52.406;5.280;2023-06-19T01:28:39;8.30;;;4.93;;
79578;SDS011;69051;52.406;5.280;2023-06-19T01:31:09;10.60;;;4.97;;
79578;SDS011;69051;52.406;5.280;2023-06-19T01:33:38;8.80;;;4.53;;
79578;SDS011;69051;52.406;5.280;2023-06-19T01:36:06;12.60;;;4.13;;
79578;SDS011;69051;52.406;5.280;2023-06-19T01:38:33;10.05;;;4.28;;
79578;SDS011;69051;52.406;5.280;2023-06-19T01:41:00;9.35;;;4.40;;
79578;SDS011;69051;52.406;5.280;2023-06-19T01:43:28;14.05;;;4.30;;
79578;SDS011;69051;52.406;5.280;2023-06-19T01:45:57;10.60;;;4.00;;
79578;SDS011;69051;52.406;5.280;2023-06-19T01:48:24;8.00;;;3.40;;
79578;SDS011;69051;52.406;5.280;2023-06-19T01:50:50;6.78;;;3.15;;
79578;SDS011;69051;52.406;5.280;2023-06-19T01:53:17;8.20;;;2.80;;
79578;SDS011;69051;52.406;5.280;2023-06-19T01:55:44;5.35;;;2.67;;
79578;SDS011;69051;52.406;5.280;2023-06-19T01:58:10;8.00;;;3.00;;
79578;SDS011;69051;52.406;5.280;2023-06-19T02:00:36;7.93;;;2.72;;
79578;SDS011;69051;52.406;5.280;2023-06-19T02:03:04;7.18;;;2.63;;
79578;SDS011;69051;52.406;5.280;2023-06-19T02:05:31;7.90;;;2.30;;
79578;SDS011;69051;52.406;5.280;2023-06-19T02:07:57;6.85;;;2.80;;
79578;SDS011;69051;52.406;5.280;2023-06-19T02:10:24;7.03;;;2.75;;
79578;SDS011;69051;52.406;5.280;2023-06-19T02:12:50;7.75;;;2.78;;
79578;SDS011;69051;52.406;5.280;2023-06-19T02:15:17;12.10;;;2.85;;
79578;SDS011;69051;52.406;5.280;2023-06-19T02:17:43;7.35;;;2.53;;
79578;SDS011;69051;52.406;5.280;2023-06-19T02:20:10;6.15;;;2.90;;
79578;SDS011;69051;52.406;5.280;2023-06-19T02:22:38;6.57;;;3.00;;
79578;SDS011;69051;52.406;5.280;2023-06-19T02:25:05;5.18;;;2.50;;
79578;SDS011;69051;52.406;5.280;2023-06-19T02:27:32;5.72;;;2.67;;
79578;SDS011;69051;52.406;5.280;2023-06-19T02:29:58;6.18;;;3.03;;
79578;SDS011;69051;52.406;5.280;2023-06-19T02:32:25;6.80;;;2.95;;
79578;SDS011;69051;52.406;5.280;2023-06-19T02:34:52;7.90;;;2.95;;
79578;SDS011;69051;52.406;5.280;2023-06-19T02:37:19;7.75;;;3.30;;
79578;SDS011;69051;52.406;5.280;2023-06-19T02:39:45;9.65;;;3.63;;
79578;SDS011;69051;52.406;5.280;2023-06-19T02:42:12;7.82;;;3.30;;
79578;SDS011;69051;52.406;5.280;2023-06-19T02:44:38;8.52;;;4.53;;
79578;SDS011;69051;52.406;5.280;2023-06-19T02:47:05;8.63;;;4.35;;
79578;SDS011;69051;52.406;5.280;2023-06-19T02:49:31;9.27;;;4.43;;
79578;SDS011;69051;52.406;5.280;2023-06-19T02:51:58;8.35;;;3.85;;
79578;SDS011;69051;52.406;5.280;2023-06-19T02:54:24;11.77;;;3.75;;
79578;SDS011;69051;52.406;5.280;2023-06-19T02:56:51;8.07;;;4.80;;
79578;SDS011;69051;52.406;5.280;2023-06-19T02:59:17;9.43;;;4.55;;
79578;SDS011;69051;52.406;5.280;2023-06-19T03:01:44;8.85;;;3.55;;
79578;SDS011;69051;52.406;5.280;2023-06-19T03:04:11;7.85;;;3.67;;
79578;SDS011;69051;52.406;5.280;2023-06-19T03:06:39;10.43;;;4.25;;
79578;SDS011;69051;52.406;5.280;2023-06-19T03:09:06;10.68;;;4.68;;
79578;SDS011;69051;52.406;5.280;2023-06-19T03:11:38;8.15;;;4.28;;
79578;SDS011;69051;52.406;5.280;2023-06-19T03:14:06;10.00;;;4.65;;
79578;SDS011;69051;52.406;5.280;2023-06-19T03:16:34;11.95;;;5.15;;
79578;SDS011;69051;52.406;5.280;2023-06-19T03:19:01;9.55;;;5.15;;
79578;SDS011;69051;52.406;5.280;2023-06-19T03:21:27;10.20;;;5.07;;
79578;SDS011;69051;52.406;5.280;2023-06-19T03:23:54;9.10;;;5.40;;
79578;SDS011;69051;52.406;5.280;2023-06-19T03:26:20;9.50;;;4.85;;
79578;SDS011;69051;52.406;5.280;2023-06-19T03:28:47;8.38;;;5.00;;
79578;SDS011;69051;52.406;5.280;2023-06-19T03:31:14;8.85;;;5.15;;
79578;SDS011;69051;52.406;5.280;2023-06-19T03:33:41;10.07;;;5.35;;
79578;SDS011;69051;52.406;5.280;2023-06-19T03:36:08;11.55;;;6.32;;
79578;SDS011;69051;52.406;5.280;2023-06-19T03:38:35;10.30;;;5.85;;
79578;SDS011;69051;52.406;5.280;2023-06-19T03:41:01;13.43;;;6.45;;
79578;SDS011;69051;52.406;5.280;2023-06-19T03:43:28;12.05;;;7.07;;
79578;SDS011;69051;52.406;5.280;2023-06-19T03:45:54;12.35;;;6.90;;
79578;SDS011;69051;52.406;5.280;2023-06-19T03:48:21;12.45;;;7.80;;
79578;SDS011;69051;52.406;5.280;2023-06-19T03:50:47;17.88;;;11.38;;
79578;SDS011;69051;52.406;5.280;2023-06-19T03:53:14;14.38;;;9.15;;
79578;SDS011;69051;52.406;5.280;2023-06-19T03:55:40;13.80;;;8.57;;
79578;SDS011;69051;52.406;5.280;2023-06-19T03:58:07;14.40;;;8.30;;
79578;SDS011;69051;52.406;5.280;2023-06-19T04:00:33;21.20;;;12.35;;
79578;SDS011;69051;52.406;5.280;2023-06-19T04:03:00;20.20;;;12.60;;
79578;SDS011;69051;52.406;5.280;2023-06-19T04:05:26;24.25;;;14.35;;
79578;SDS011;69051;52.406;5.280;2023-06-19T04:07:53;22.70;;;13.68;;
79578;SDS011;69051;52.406;5.280;2023-06-19T04:10:19;27.00;;;15.93;;
79578;SDS011;69051;52.406;5.280;2023-06-19T04:12:46;23.42;;;14.35;;
79578;SDS011;69051;52.406;5.280;2023-06-19T04:15:14;21.83;;;12.55;;
79578;SDS011;69051;52.406;5.280;2023-06-19T04:17:40;16.33;;;10.55;;
79578;SDS011;69051;52.406;5.280;2023-06-19T04:20:07;17.88;;;11.35;;
79578;SDS011;69051;52.406;5.280;2023-06-19T04:22:38;18.63;;;11.30;;
79578;SDS011;69051;52.406;5.280;2023-06-19T04:25:06;18.63;;;10.57;;
79578;SDS011;69051;52.406;5.280;2023-06-19T04:27:36;20.15;;;10.55;;
79578;SDS011;69051;52.406;5.280;2023-06-19T04:30:03;14.07;;;10.05;;
79578;SDS011;69051;52.406;5.280;2023-06-19T04:32:30;15.75;;;10.35;;
79578;SDS011;69051;52.406;5.280;2023-06-19T04:34:57;16.85;;;10.85;;
79578;SDS011;69051;52.406;5.280;2023-06-19T04:37:24;17.50;;;10.43;;
79578;SDS011;69051;52.406;5.280;2023-06-19T04:39:50;22.13;;;12.10;;
79578;SDS011;69051;52.406;5.280;2023-06-19T04:42:17;20.48;;;12.35;;
79578;SDS011;69051;52.406;5.280;2023-06-19T04:44:48;23.40;;;13.27;;
79578;SDS011;69051;52.406;5.280;2023-06-19T04:47:16;25.20;;;14.40;;
79578;SDS011;69051;52.406;5.280;2023-06-19T04:49:44;29.63;;;15.88;;
79578;SDS011;69051;52.406;5.280;2023-06-19T04:52:10;29.75;;;16.83;;
79578;SDS011;69051;52.406;5.280;2023-06-19T04:54:37;38.17;;;18.48;;
79578;SDS011;69051;52.406;5.280;2023-06-19T04:57:04;35.13;;;19.58;;
79578;SDS011;69051;52.406;5.280;2023-06-19T04:59:31;39.30;;;20.10;;
79578;SDS011;69051;52.406;5.280;2023-06-19T05:01:57;40.95;;;20.45;;
79578;SDS011;69051;52.406;5.280;2023-06-19T05:04:24;39.15;;;19.65;;
79578;SDS011;69051;52.406;5.280;2023-06-19T05:06:51;43.67;;;20.17;;
79578;SDS011;69051;52.406;5.280;2023-06-19T05:09:17;36.28;;;18.13;;
79578;SDS011;69051;52.406;5.280;2023-06-19T05:11:44;34.88;;;17.40;;
79578;SDS011;69051;52.406;5.280;2023-06-19T05:14:10;35.47;;;16.23;;
79578;SDS011;69051;52.406;5.280;2023-06-19T05:16:37;29.38;;;14.52;;
79578;SDS011;69051;52.406;5.280;2023-06-19T05:19:04;30.48;;;13.73;;
79578;SDS011;69051;52.406;5.280;2023-06-19T05:21:31;23.40;;;13.05;;
79578;SDS011;69051;52.406;5.280;2023-06-19T05:23:58;21.35;;;10.07;;
79578;SDS011;69051;52.406;5.280;2023-06-19T05:26:25;19.73;;;9.25;;
79578;SDS011;69051;52.406;5.280;2023-06-19T05:28:52;17.33;;;9.05;;
79578;SDS011;69051;52.406;5.280;2023-06-19T05:31:18;17.15;;;8.40;;
79578;SDS011;69051;52.406;5.280;2023-06-19T05:33:45;15.35;;;8.27;;
79578;SDS011;69051;52.406;5.280;2023-06-19T05:36:11;15.25;;;7.55;;
79578;SDS011;69051;52.406;5.280;2023-06-19T05:38:38;13.25;;;7.05;;
79578;SDS011;69051;52.406;5.280;2023-06-19T05:41:04;13.48;;;7.25;;
79578;SDS011;69051;52.406;5.280;2023-06-19T05:43:32;14.65;;;7.35;;
79578;SDS011;69051;52.406;5.280;2023-06-19T05:45:59;13.40;;;7.60;;
79578;SDS011;69051;52.406;5.280;2023-06-19T05:48:25;14.70;;;7.57;;
79578;SDS011;69051;52.406;5.280;2023-06-19T05:50:52;12.77;;;6.95;;
79578;SDS011;69051;52.406;5.280;2023-06-19T05:53:18;14.90;;;7.35;;
79578;SDS011;69051;52.406;5.280;2023-06-19T05:55:45;12.10;;;6.25;;
79578;SDS011;69051;52.406;5.280;2023-06-19T05:58:12;14.40;;;6.60;;
79578;SDS011;69051;52.406;5.280;2023-06-19T06:00:38;11.48;;;6.57;;
79578;SDS011;69051;52.406;5.280;2023-06-19T06:03:05;13.93;;;5.68;;
79578;SDS011;69051;52.406;5.280;2023-06-19T06:05:31;11.00;;;6.70;;
79578;SDS011;69051;52.406;5.280;2023-06-19T06:07:58;10.43;;;6.13;;
79578;SDS011;69051;52.406;5.280;2023-06-19T06:10:25;11.63;;;5.80;;
79578;SDS011;69051;52.406;5.280;2023-06-19T06:12:52;9.90;;;5.85;;
79578;SDS011;69051;52.406;5.280;2023-06-19T06:15:19;9.88;;;5.72;;
79578;SDS011;69051;52.406;5.280;2023-06-19T06:17:45;10.43;;;5.55;;
79578;SDS011;69051;52.406;5.280;2023-06-19T06:20:12;11.45;;;5.57;;
79578;SDS011;69051;52.406;5.280;2023-06-19T06:22:39;13.38;;;5.35;;
79578;SDS011;69051;52.406;5.280;2023-06-19T06:25:06;10.23;;;5.57;;
79578;SDS011;69051;52.406;5.280;2023-06-19T06:27:36;10.00;;;5.72;;
79578;SDS011;69051;52.406;5.280;2023-06-19T06:30:03;11.20;;;5.32;;
79578;SDS011;69051;52.406;5.280;2023-06-19T06:32:30;10.55;;;6.00;;
79578;SDS011;69051;52.406;5.280;2023-06-19T06:34:57;10.52;;;5.78;;
79578;SDS011;69051;52.406;5.280;2023-06-19T06:37:25;10.73;;;5.95;;
79578;SDS011;69051;52.406;5.280;2023-06-19T06:39:51;11.15;;;6.50;;
79578;SDS011;69051;52.406;5.280;2023-06-19T06:42:18;11.48;;;5.93;;
79578;SDS011;69051;52.406;5.280;2023-06-19T06:44:45;10.90;;;6.28;;
79578;SDS011;69051;52.406;5.280;2023-06-19T06:47:11;12.68;;;7.45;;
79578;SDS011;69051;52.406;5.280;2023-06-19T06:49:38;12.95;;;7.55;;
79578;SDS011;69051;52.406;5.280;2023-06-19T06:52:05;16.50;;;8.38;;
79578;SDS011;69051;52.406;5.280;2023-06-19T06:54:32;16.42;;;8.02;;
79578;SDS011;69051;52.406;5.280;2023-06-19T06:56:59;14.25;;;7.50;;
79578;SDS011;69051;52.406;5.280;2023-06-19T06:59:26;16.45;;;8.73;;
79578;SDS011;69051;52.406;5.280;2023-06-19T07:01:56;14.77;;;9.25;;
79578;SDS011;69051;52.406;5.280;2023-06-19T07:04:22;16.73;;;9.10;;
79578;SDS011;69051;52.406;5.280;2023-06-19T07:06:49;20.60;;;9.25;;
79578;SDS011;69051;52.406;5.280;2023-06-19T07:09:16;22.60;;;10.23;;
79578;SDS011;69051;52.406;5.280;2023-06-19T07:11:43;19.92;;;10.90;;
79578;SDS011;69051;52.406;5.280;2023-06-19T07:14:09;21.92;;;11.30;;
79578;SDS011;69051;52.406;5.280;2023-06-19T07:16:36;19.98;;;12.27;;
79578;SDS011;69051;52.406;5.280;2023-06-19T07:19:02;25.58;;;13.10;;
79578;SDS011;69051;52.406;5.280;2023-06-19T07:21:28;25.95;;;13.45;;
79578;SDS011;69051;52.406;5.280;2023-06-19T07:23:56;25.95;;;13.77;;
79578;SDS011;69051;52.406;5.280;2023-06-19T07:26:23;24.33;;;12.85;;
79578;SDS011;69051;52.406;5.280;2023-06-19T07:28:49;20.63;;;11.52;;
79578;SDS011;69051;52.406;5.280;2023-06-19T07:31:16;23.67;;;12.13;;
79578;SDS011;69051;52.406;5.280;2023-06-19T07:33:42;25.40;;;13.00;;
79578;SDS011;69051;52.406;5.280;2023-06-19T07:36:08;24.52;;;12.98;;
79578;SDS011;69051;52.406;5.280;2023-06-19T07:38:40;27.45;;;13.40;;
79578;SDS011;69051;52.406;5.280;2023-06-19T07:41:07;25.35;;;13.25;;
79578;SDS011;69051;52.406;5.280;2023-06-19T07:43:36;28.80;;;15.40;;
79578;SDS011;69051;52.406;5.280;2023-06-19T07:46:03;29.90;;;15.50;;
79578;SDS011;69051;52.406;5.280;2023-06-19T07:48:30;26.60;;;13.70;;
79578;SDS011;69051;52.406;5.280;2023-06-19T07:50:56;29.65;;;14.70;;
79578;SDS011;69051;52.406;5.280;2023-06-19T07:53:23;25.92;;;14.73;;
79578;SDS011;69051;52.406;5.280;2023-06-19T07:55:50;26.02;;;14.75;;
79578;SDS011;69051;52.406;5.280;2023-06-19T07:58:16;25.85;;;14.52;;
79578;SDS011;69051;52.406;5.280;2023-06-19T08:00:43;28.58;;;14.63;;
79578;SDS011;69051;52.406;5.280;2023-06-19T08:03:09;25.73;;;12.68;;
79578;SDS011;69051;52.406;5.280;2023-06-19T08:05:36;22.55;;;12.55;;
79578;SDS011;69051;52.406;5.280;2023-06-19T08:08:03;24.50;;;13.20;;
79578;SDS011;69051;52.406;5.280;2023-06-19T08:10:29;22.15;;;12.68;;
79578;SDS011;69051;52.406;5.280;2023-06-19T08:12:56;23.25;;;11.88;;
79578;SDS011;69051;52.406;5.280;2023-06-19T08:15:22;19.48;;;11.63;;
79578;SDS011;69051;52.406;5.280;2023-06-19T08:17:49;19.80;;;10.13;;
79578;SDS011;69051;52.406;5.280;2023-06-19T08:20:15;17.48;;;9.77;;
79578;SDS011;69051;52.406;5.280;2023-06-19T08:22:42;22.77;;;8.82;;
79578;SDS011;69051;52.406;5.280;2023-06-19T08:25:08;20.23;;;10.43;;
79578;SDS011;69051;52.406;5.280;2023-06-19T08:27:35;19.70;;;10.35;;
79578;SDS011;69051;52.406;5.280;2023-06-19T08:30:01;20.30;;;9.45;;
79578;SDS011;69051;52.406;5.280;2023-06-19T08:32:29;18.45;;;9.88;;
79578;SDS011;69051;52.406;5.280;2023-06-19T08:34:55;15.88;;;9.52;;
79578;SDS011;69051;52.406;5.280;2023-06-19T08:37:22;19.27;;;9.50;;
79578;SDS011;69051;52.406;5.280;2023-06-19T08:39:48;18.63;;;8.30;;
79578;SDS011;69051;52.406;5.280;2023-06-19T08:42:15;15.48;;;8.65;;
79578;SDS011;69051;52.406;5.280;2023-06-19T08:44:42;16.42;;;8.75;;
79578;SDS011;69051;52.406;5.280;2023-06-19T08:47:08;19.48;;;8.68;;
79578;SDS011;69051;52.406;5.280;2023-06-19T08:49:36;17.10;;;9.45;;
79578;SDS011;69051;52.406;5.280;2023-06-19T08:52:03;19.40;;;9.75;;
79578;SDS011;69051;52.406;5.280;2023-06-19T08:54:30;17.33;;;9.32;;
79578;SDS011;69051;52.406;5.280;2023-06-19T08:57:03;16.17;;;9.43;;
79578;SDS011;69051;52.406;5.280;2023-06-19T08:59:30;17.98;;;9.80;;
79578;SDS011;69051;52.406;5.280;2023-06-19T09:01:58;19.10;;;9.52;;
79578;SDS011;69051;52.406;5.280;2023-06-19T09:04:25;15.05;;;8.43;;
79578;SDS011;69051;52.406;5.280;2023-06-19T09:06:58;18.98;;;9.93;;
79578;SDS011;69051;52.406;5.280;2023-06-19T09:09:29;17.80;;;9.65;;
79578;SDS011;69051;52.406;5.280;2023-06-19T09:12:04;17.63;;;9.07;;
79578;SDS011;69051;52.406;5.280;2023-06-19T09:17:05;21.73;;;10.02;;
79578;SDS011;69051;52.406;5.280;2023-06-19T09:19:53;17.73;;;10.77;;
79578;SDS011;69051;52.406;5.280;2023-06-19T09:22:22;21.70;;;11.07;;
79578;SDS011;69051;52.406;5.280;2023-06-19T09:24:49;22.48;;;10.32;;
79578;SDS011;69051;52.406;5.280;2023-06-19T09:27:16;19.25;;;9.55;;
79578;SDS011;69051;52.406;5.280;2023-06-19T09:29:45;16.25;;;9.50;;
79578;SDS011;69051;52.406;5.280;2023-06-19T09:32:31;23.23;;;11.75;;
79578;SDS011;69051;52.406;5.280;2023-06-19T09:34:58;19.10;;;10.00;;
79578;SDS011;69051;52.406;5.280;2023-06-19T09:37:28;18.55;;;9.05;;
79578;SDS011;69051;52.406;5.280;2023-06-19T09:42:27;17.90;;;9.63;;
79578;SDS011;69051;52.406;5.280;2023-06-19T09:45:04;18.98;;;11.30;;
79578;SDS011;69051;52.406;5.280;2023-06-19T09:47:38;18.85;;;10.60;;
79578;SDS011;69051;52.406;5.280;2023-06-19T09:50:06;19.45;;;11.23;;
79578;SDS011;69051;52.406;5.280;2023-06-19T09:52:33;26.60;;;10.90;;
79578;SDS011;69051;52.406;5.280;2023-06-19T09:55:01;18.83;;;10.50;;
79578;SDS011;69051;52.406;5.280;2023-06-19T09:57:29;21.45;;;10.60;;
79578;SDS011;69051;52.406;5.280;2023-06-19T09:59:56;20.25;;;9.38;;
79578;SDS011;69051;52.406;5.280;2023-06-19T10:02:27;17.48;;;10.40;;
79578;SDS011;69051;52.406;5.280;2023-06-19T10:04:54;22.55;;;11.32;;
79578;SDS011;69051;52.406;5.280;2023-06-19T10:07:22;20.75;;;11.68;;
79578;SDS011;69051;52.406;5.280;2023-06-19T10:10:00;19.70;;;11.57;;
79578;SDS011;69051;52.406;5.280;2023-06-19T10:12:33;25.63;;;12.52;;
79578;SDS011;69051;52.406;5.280;2023-06-19T10:17:37;20.40;;;11.90;;
79578;SDS011;69051;52.406;5.280;2023-06-19T10:20:17;19.98;;;10.68;;
79578;SDS011;69051;52.406;5.280;2023-06-19T10:23:16;18.33;;;8.80;;
79578;SDS011;69051;52.406;5.280;2023-06-19T10:25:48;16.50;;;8.93;;
79578;SDS011;69051;52.406;5.280;2023-06-19T10:28:16;17.50;;;8.90;;
79578;SDS011;69051;52.406;5.280;2023-06-19T10:30:44;16.33;;;8.20;;
79578;SDS011;69051;52.406;5.280;2023-06-19T10:33:10;12.00;;;7.28;;
79578;SDS011;69051;52.406;5.280;2023-06-19T10:35:38;15.27;;;8.52;;
79578;SDS011;69051;52.406;5.280;2023-06-19T10:38:06;19.77;;;9.60;;
79578;SDS011;69051;52.406;5.280;2023-06-19T10:40:34;20.13;;;9.15;;
79578;SDS011;69051;52.406;5.280;2023-06-19T10:43:02;16.33;;;9.50;;
79578;SDS011;69051;52.406;5.280;2023-06-19T10:45:30;25.38;;;10.43;;
79578;SDS011;69051;52.406;5.280;2023-06-19T10:47:57;17.38;;;9.88;;
79578;SDS011;69051;52.406;5.280;2023-06-19T10:50:26;16.85;;;9.65;;
79578;SDS011;69051;52.406;5.280;2023-06-19T10:52:53;16.40;;;9.30;;
79578;SDS011;69051;52.406;5.280;2023-06-19T10:55:22;19.30;;;8.65;;
79578;SDS011;69051;52.406;5.280;2023-06-19T10:57:49;19.88;;;9.90;;
79578;SDS011;69051;52.406;5.280;2023-06-19T11:00:23;16.00;;;9.32;;
79578;SDS011;69051;52.406;5.280;2023-06-19T11:02:50;17.60;;;8.93;;
79578;SDS011;69051;52.406;5.280;2023-06-19T11:05:19;17.85;;;10.23;;
79578;SDS011;69051;52.406;5.280;2023-06-19T11:10:23;14.98;;;8.65;;
79578;SDS011;69051;52.406;5.280;2023-06-19T11:12:54;15.57;;;8.48;;
79578;SDS011;69051;52.406;5.280;2023-06-19T11:15:32;16.13;;;8.30;;
79578;SDS011;69051;52.406;5.280;2023-06-19T11:18:00;14.70;;;9.13;;
79578;SDS011;69051;52.406;5.280;2023-06-19T11:20:28;17.65;;;9.23;;
79578;SDS011;69051;52.406;5.280;2023-06-19T11:22:55;14.65;;;8.38;;
79578;SDS011;69051;52.406;5.280;2023-06-19T11:25:23;16.80;;;8.52;;
79578;SDS011;69051;52.406;5.280;2023-06-19T11:27:50;15.00;;;8.20;;
79578;SDS011;69051;52.406;5.280;2023-06-19T11:30:18;12.65;;;6.40;;
79578;SDS011;69051;52.406;5.280;2023-06-19T11:32:48;14.25;;;7.28;;
79578;SDS011;69051;52.406;5.280;2023-06-19T11:35:17;13.23;;;6.78;;
79578;SDS011;69051;52.406;5.280;2023-06-19T11:37:43;15.70;;;8.18;;
79578;SDS011;69051;52.406;5.280;2023-06-19T11:40:10;13.45;;;7.75;;
79578;SDS011;69051;52.406;5.280;2023-06-19T11:42:48;15.20;;;8.10;;
79578;SDS011;69051;52.406;5.280;2023-06-19T11:45:15;18.08;;;7.90;;
79578;SDS011;69051;52.406;5.280;2023-06-19T11:47:43;16.70;;;7.40;;
79578;SDS011;69051;52.406;5.280;2023-06-19T11:50:11;13.40;;;6.80;;
79578;SDS011;69051;52.406;5.280;2023-06-19T11:52:38;14.07;;;7.28;;
79578;SDS011;69051;52.406;5.280;2023-06-19T11:55:05;13.00;;;7.65;;
79578;SDS011;69051;52.406;5.280;2023-06-19T11:57:32;18.85;;;7.70;;
79578;SDS011;69051;52.406;5.280;2023-06-19T12:00:01;13.48;;;7.22;;
79578;SDS011;69051;52.406;5.280;2023-06-19T12:02:32;12.60;;;6.80;;
79578;SDS011;69051;52.406;5.280;2023-06-19T12:04:58;13.07;;;7.20;;
79578;SDS011;69051;52.406;5.280;2023-06-19T12:07:25;13.48;;;6.43;;
79578;SDS011;69051;52.406;5.280;2023-06-19T12:09:52;11.90;;;6.55;;
79578;SDS011;69051;52.406;5.280;2023-06-19T12:12:18;10.80;;;6.30;;
79578;SDS011;69051;52.406;5.280;2023-06-19T12:14:45;14.30;;;6.68;;
79578;SDS011;69051;52.406;5.280;2023-06-19T12:17:11;12.15;;;7.20;;
79578;SDS011;69051;52.406;5.280;2023-06-19T12:19:38;14.02;;;6.65;;
79578;SDS011;69051;52.406;5.280;2023-06-19T12:22:04;11.10;;;6.45;;
79578;SDS011;69051;52.406;5.280;2023-06-19T12:24:31;11.48;;;7.10;;
79578;SDS011;69051;52.406;5.280;2023-06-19T12:26:58;15.38;;;7.22;;
79578;SDS011;69051;52.406;5.280;2023-06-19T12:29:24;12.32;;;6.65;;
79578;SDS011;69051;52.406;5.280;2023-06-19T12:31:51;11.88;;;6.45;;
79578;SDS011;69051;52.406;5.280;2023-06-19T12:34:17;13.32;;;6.78;;
79578;SDS011;69051;52.406;5.280;2023-06-19T12:36:56;10.57;;;6.32;;
79578;SDS011;69051;52.406;5.280;2023-06-19T12:39:25;13.00;;;6.07;;
79578;SDS011;69051;52.406;5.280;2023-06-19T12:41:52;13.30;;;6.47;;
79578;SDS011;69051;52.406;5.280;2023-06-19T12:44:20;16.27;;;8.13;;
79578;SDS011;69051;52.406;5.280;2023-06-19T12:46:47;15.13;;;6.78;;
79578;SDS011;69051;52.406;5.280;2023-06-19T12:49:14;12.48;;;6.47;;
79578;SDS011;69051;52.406;5.280;2023-06-19T12:51:40;12.25;;;6.95;;
79578;SDS011;69051;52.406;5.280;2023-06-19T12:54:07;12.38;;;6.65;;
79578;SDS011;69051;52.406;5.280;2023-06-19T12:56:33;12.80;;;6.88;;
79578;SDS011;69051;52.406;5.280;2023-06-19T12:59:00;13.90;;;6.75;;
79578;SDS011;69051;52.406;5.280;2023-06-19T13:01:26;11.05;;;6.70;;
79578;SDS011;69051;52.406;5.280;2023-06-19T13:03:53;15.15;;;6.63;;
79578;SDS011;69051;52.406;5.280;2023-06-19T13:06:19;11.30;;;6.60;;
79578;SDS011;69051;52.406;5.280;2023-06-19T13:08:46;10.55;;;5.68;;
79578;SDS011;69051;52.406;5.280;2023-06-19T13:11:13;12.15;;;6.30;;
79578;SDS011;69051;52.406;5.280;2023-06-19T13:13:39;12.05;;;6.05;;
79578;SDS011;69051;52.406;5.280;2023-06-19T13:16:05;12.77;;;6.03;;
79578;SDS011;69051;52.406;5.280;2023-06-19T13:18:32;12.48;;;5.97;;
79578;SDS011;69051;52.406;5.280;2023-06-19T13:20:58;13.35;;;6.03;;
79578;SDS011;69051;52.406;5.280;2023-06-19T13:23:25;12.00;;;5.57;;
79578;SDS011;69051;52.406;5.280;2023-06-19T13:25:51;11.90;;;6.22;;
79578;SDS011;69051;52.406;5.280;2023-06-19T13:28:18;11.50;;;5.85;;
79578;SDS011;69051;52.406;5.280;2023-06-19T13:30:45;12.63;;;6.03;;
79578;SDS011;69051;52.406;5.280;2023-06-19T13:33:11;15.27;;;6.88;;
79578;SDS011;69051;52.406;5.280;2023-06-19T13:35:38;17.42;;;5.55;;
79578;SDS011;69051;52.406;5.280;2023-06-19T13:38:04;13.57;;;6.15;;
79578;SDS011;69051;52.406;5.280;2023-06-19T13:40:32;9.95;;;5.95;;
79578;SDS011;69051;52.406;5.280;2023-06-19T13:42:58;14.27;;;5.22;;
79578;SDS011;69051;52.406;5.280;2023-06-19T13:45:26;12.95;;;5.50;;
79578;SDS011;69051;52.406;5.280;2023-06-19T13:47:52;15.95;;;5.68;;
79578;SDS011;69051;52.406;5.280;2023-06-19T13:50:19;11.68;;;5.03;;
79578;SDS011;69051;52.406;5.280;2023-06-19T13:52:45;11.35;;;4.88;;
79578;SDS011;69051;52.406;5.280;2023-06-19T13:55:12;11.93;;;4.93;;
79578;SDS011;69051;52.406;5.280;2023-06-19T13:57:40;8.93;;;4.82;;
79578;SDS011;69051;52.406;5.280;2023-06-19T14:00:08;9.38;;;4.28;;
79578;SDS011;69051;52.406;5.280;2023-06-19T14:02:37;11.30;;;5.05;;
79578;SDS011;69051;52.406;5.280;2023-06-19T14:05:05;11.65;;;4.97;;
79578;SDS011;69051;52.406;5.280;2023-06-19T14:07:32;10.77;;;4.50;;
79578;SDS011;69051;52.406;5.280;2023-06-19T14:09:59;12.15;;;4.95;;
79578;SDS011;69051;52.406;5.280;2023-06-19T14:12:26;9.95;;;4.45;;
79578;SDS011;69051;52.406;5.280;2023-06-19T14:14:52;8.43;;;4.47;;
79578;SDS011;69051;52.406;5.280;2023-06-19T14:17:19;10.10;;;4.68;;
79578;SDS011;69051;52.406;5.280;2023-06-19T14:19:46;9.90;;;4.32;;
79578;SDS011;69051;52.406;5.280;2023-06-19T14:22:16;8.57;;;4.38;;
79578;SDS011;69051;52.406;5.280;2023-06-19T14:24:43;10.30;;;4.53;;
79578;SDS011;69051;52.406;5.280;2023-06-19T14:27:10;11.75;;;5.03;;
79578;SDS011;69051;52.406;5.280;2023-06-19T14:29:37;8.25;;;4.47;;
79578;SDS011;69051;52.406;5.280;2023-06-19T14:32:03;9.77;;;4.35;;
79578;SDS011;69051;52.406;5.280;2023-06-19T14:34:30;11.07;;;4.60;;
79578;SDS011;69051;52.406;5.280;2023-06-19T14:36:56;9.77;;;4.55;;
79578;SDS011;69051;52.406;5.280;2023-06-19T14:39:23;9.05;;;4.18;;
79578;SDS011;69051;52.406;5.280;2023-06-19T14:41:50;9.63;;;4.82;;
79578;SDS011;69051;52.406;5.280;2023-06-19T14:44:16;8.65;;;4.57;;
79578;SDS011;69051;52.406;5.280;2023-06-19T14:46:43;11.13;;;5.00;;
79578;SDS011;69051;52.406;5.280;2023-06-19T14:49:10;10.80;;;4.50;;